Time;durP1;ratioP1;P1;durP2;ratioP2;P2;SDS_P1;SDS_P2;PMS_P1;PMS_P2;Temp;Humidity;BMP_temperature;BMP_pressure;BME280_temperature;BME280_humidity;BME280_pressure;Samples;Min_cycle;Max_cycle;Signal;HPM_P1;HPM_P2
2023/01/09 00:01:31;;;;;;;124.50;85.15;;;9.10;99.90;;;;;;5051729;28;20075;-68
2023/01/09 00:03:56;;;;;;;46.85;27.73;;;9.10;99.90;;;;;;5052060;28;20024;-68
2023/01/09 00:06:22;;;;;;;19.90;6.78;;;8.90;99.90;;;;;;5052042;28;20120;-68
2023/01/09 00:08:48;;;;;;;22.00;5.85;;;8.70;99.90;;;;;;5052379;28;20055;-68
2023/01/09 00:11:14;;;;;;;40.42;25.95;;;8.70;99.90;;;;;;5051645;28;20461;-68
2023/01/09 00:13:39;;;;;;;28.45;13.77;;;8.70;99.90;;;;;;5051955;28;20473;-68
2023/01/09 00:16:06;;;;;;;65.47;47.13;;;8.70;99.90;;;;;;5051657;28;20035;-68
2023/01/09 00:18:32;;;;;;;39.25;24.20;;;8.70;99.90;;;;;;5052164;28;20109;-68
2023/01/09 00:21:05;;;;;;;60.10;35.97;;;8.70;99.90;;;;;;5051955;28;20529;-68
2023/01/09 00:23:31;;;;;;;25.90;8.68;;;8.80;99.90;;;;;;5052414;28;20033;-68
2023/01/09 00:26:01;;;;;;;23.98;5.78;;;8.80;99.90;;;;;;5050650;28;20086;-68
2023/01/09 00:28:27;;;;;;;26.17;5.35;;;8.70;99.90;;;;;;5051543;28;20076;-68
2023/01/09 00:30:57;;;;;;;29.52;6.07;;;8.70;99.90;;;;;;5051557;28;20076;-67
2023/01/09 00:33:29;;;;;;;23.63;5.40;;;8.80;99.90;;;;;;5051556;28;20041;-68
2023/01/09 00:35:55;;;;;;;21.45;5.25;;;8.70;99.90;;;;;;5051823;28;20047;-68
2023/01/09 00:38:21;;;;;;;28.65;6.30;;;8.60;99.90;;;;;;5051699;28;20048;-68
2023/01/09 00:40:46;;;;;;;22.38;5.65;;;8.70;99.90;;;;;;5051897;28;20067;-68
2023/01/09 00:43:12;;;;;;;21.65;5.80;;;8.60;99.90;;;;;;5052005;28;20025;-67
2023/01/09 00:45:38;;;;;;;27.42;10.00;;;8.60;99.90;;;;;;5051014;28;20512;-68
2023/01/09 00:48:12;;;;;;;24.40;5.20;;;8.40;99.90;;;;;;5051974;28;20496;-68
2023/01/09 00:50:38;;;;;;;21.27;4.88;;;8.30;99.90;;;;;;5051955;28;20406;-68
2023/01/09 00:53:11;;;;;;;22.85;4.85;;;8.40;99.90;;;;;;5051683;28;20042;-68
2023/01/09 00:55:38;;;;;;;31.42;5.80;;;8.50;99.90;;;;;;5051695;28;20029;-68
2023/01/09 00:58:04;;;;;;;24.58;5.00;;;8.50;99.90;;;;;;5051853;28;20086;-68
2023/01/09 01:00:30;;;;;;;24.35;5.05;;;8.60;99.90;;;;;;5051267;28;20029;-68
2023/01/09 01:02:55;;;;;;;21.83;4.50;;;8.90;99.90;;;;;;5051717;28;20029;-68
2023/01/09 01:08:17;;;;;;;24.88;4.88;;;9.30;99.90;;;;;;5051797;28;20393;-69
2023/01/09 01:10:43;;;;;;;22.08;4.70;;;9.20;99.90;;;;;;5051725;28;20086;-69
2023/01/09 01:13:09;;;;;;;23.60;4.65;;;9.10;99.90;;;;;;5051097;28;20099;-69
2023/01/09 01:15:38;;;;;;;19.10;4.53;;;9.10;99.90;;;;;;5051505;28;20079;-69
2023/01/09 01:18:04;;;;;;;25.23;5.15;;;9.20;99.90;;;;;;5051340;28;20166;-69
2023/01/09 01:20:29;;;;;;;19.80;4.20;;;9.30;99.90;;;;;;5050070;28;20124;-69
2023/01/09 01:22:55;;;;;;;19.25;4.32;;;9.20;99.90;;;;;;5052853;28;20063;-69
2023/01/09 01:25:21;;;;;;;17.42;4.07;;;9.20;99.90;;;;;;5055067;28;20029;-68
2023/01/09 01:27:46;;;;;;;21.02;4.82;;;9.10;99.90;;;;;;5054163;28;20090;-68
2023/01/09 01:30:14;;;;;;;18.48;3.95;;;9.10;99.90;;;;;;5055297;28;20036;-68
2023/01/09 01:32:40;;;;;;;22.35;4.45;;;9.10;99.90;;;;;;5054776;28;20033;-69
2023/01/09 01:35:07;;;;;;;20.73;4.40;;;9.20;99.90;;;;;;5054796;28;20026;-68
2023/01/09 01:37:34;;;;;;;23.05;5.18;;;9.20;99.90;;;;;;5055209;28;20086;-68
2023/01/09 01:39:59;;;;;;;20.73;4.60;;;9.20;99.90;;;;;;5054748;28;20396;-69
2023/01/09 01:42:25;;;;;;;23.13;4.85;;;9.20;99.90;;;;;;5054137;28;20033;-68
2023/01/09 01:45:18;;;;;;;24.17;5.13;;;9.30;99.90;;;;;;5054658;28;20025;-69
2023/01/09 01:47:55;;;;;;;26.63;4.72;;;9.20;99.90;;;;;;5054423;28;20024;-68
2023/01/09 01:50:33;;;;;;;24.75;5.18;;;9.30;99.90;;;;;;5054482;28;20037;-69
2023/01/09 01:53:06;;;;;;;23.13;4.97;;;9.20;99.90;;;;;;5054957;28;20043;-69
2023/01/09 01:55:35;;;;;;;17.40;4.63;;;9.20;99.90;;;;;;5054438;28;20033;-69
2023/01/09 01:58:04;;;;;;;20.65;4.50;;;9.20;99.90;;;;;;5053916;28;20086;-68
2023/01/09 02:00:33;;;;;;;21.45;4.78;;;9.00;99.90;;;;;;5054722;28;20017;-69
2023/01/09 02:03:00;;;;;;;21.38;4.20;;;8.70;99.90;;;;;;5054277;28;20040;-69
2023/01/09 02:05:25;;;;;;;20.17;4.45;;;8.40;99.90;;;;;;5036423;28;20473;-69
2023/01/09 02:07:51;;;;;;;20.48;4.55;;;8.30;99.90;;;;;;5054242;28;20112;-69
2023/01/09 02:10:17;;;;;;;22.75;4.65;;;8.20;99.90;;;;;;5054006;28;20041;-69
2023/01/09 02:12:43;;;;;;;20.48;4.47;;;8.00;99.90;;;;;;5053687;28;20024;-68
2023/01/09 02:15:13;;;;;;;18.77;3.95;;;7.90;99.90;;;;;;5053983;28;20454;-69
2023/01/09 02:18:13;;;;;;;23.55;4.40;;;7.90;99.90;;;;;;5054014;28;20028;-69
2023/01/09 02:20:56;;;;;;;19.73;3.95;;;7.80;99.90;;;;;;5053918;28;20397;-68
2023/01/09 02:23:33;;;;;;;16.90;3.63;;;7.60;99.90;;;;;;5053819;28;20025;-68
2023/01/09 02:26:27;;;;;;;22.30;4.57;;;7.40;99.90;;;;;;5053325;28;20029;-68
2023/01/09 02:29:29;;;;;;;18.52;3.85;;;7.50;99.90;;;;;;5053713;28;20191;-68
2023/01/09 02:32:16;;;;;;;23.27;4.57;;;7.50;99.90;;;;;;5053393;28;20033;-69
2023/01/09 02:35:04;;;;;;;24.25;4.28;;;7.40;99.90;;;;;;5053833;28;20024;-68
2023/01/09 02:37:54;;;;;;;24.33;5.28;;;7.20;99.90;;;;;;5053642;28;20048;-68
2023/01/09 02:40:27;;;;;;;27.48;5.15;;;7.10;99.90;;;;;;5053214;28;20028;-68
2023/01/09 02:42:56;;;;;;;29.20;4.60;;;7.00;99.90;;;;;;5053689;28;20334;-68
2023/01/09 02:45:21;;;;;;;26.50;5.00;;;7.00;99.90;;;;;;5053753;28;20037;-68
2023/01/09 02:47:48;;;;;;;26.63;6.15;;;7.20;99.90;;;;;;5053266;28;20028;-68
2023/01/09 02:50:26;;;;;;;26.17;5.47;;;7.30;99.90;;;;;;5053429;28;20033;-68
2023/01/09 02:53:20;;;;;;;24.33;4.72;;;7.40;99.90;;;;;;5053346;28;20446;-68
2023/01/09 02:56:10;;;;;;;26.40;5.45;;;7.50;99.90;;;;;;5052948;28;20078;-68
2023/01/09 02:59:01;;;;;;;26.85;5.78;;;7.50;99.90;;;;;;5053156;28;20039;-69
2023/01/09 03:02:20;;;;;;;30.38;5.70;;;7.60;99.90;;;;;;5053268;28;20025;-68
2023/01/09 03:05:03;;;;;;;27.55;5.60;;;7.60;99.90;;;;;;5011607;28;20062;-68
2023/01/09 03:07:44;;;;;;;30.15;5.38;;;7.50;99.90;;;;;;5010906;28;20026;-69
2023/01/09 03:10:27;;;;;;;32.83;5.72;;;7.50;99.90;;;;;;5010459;28;20422;-69
2023/01/09 03:12:53;;;;;;;27.02;6.35;;;8.00;99.90;;;;;;5011548;28;20042;-69
2023/01/09 03:15:24;;;;;;;25.63;5.38;;;8.50;99.90;;;;;;5010961;28;20560;-68
2023/01/09 03:17:51;;;;;;;26.75;5.90;;;8.40;99.90;;;;;;5010934;28;20544;-68
2023/01/09 03:20:22;;;;;;;23.55;6.15;;;8.40;99.90;;;;;;5011038;28;20038;-69
2023/01/09 03:22:57;;;;;;;20.58;5.32;;;8.40;99.90;;;;;;5010839;28;20041;-68
2023/01/09 03:25:25;;;;;;;24.98;5.57;;;8.40;99.90;;;;;;5010631;28;20038;-68
2023/01/09 03:27:58;;;;;;;22.98;5.25;;;8.60;99.90;;;;;;5010670;28;20184;-69
2023/01/09 03:30:27;;;;;;;28.55;5.45;;;8.90;99.90;;;;;;5011135;28;20030;-69
2023/01/09 03:32:53;;;;;;;19.58;5.22;;;9.10;99.90;;;;;;5010598;28;20041;-68
2023/01/09 03:35:18;;;;;;;27.80;4.82;;;9.10;99.90;;;;;;5010690;28;20506;-69
2023/01/09 03:37:44;;;;;;;18.95;4.53;;;9.20;99.90;;;;;;5019394;28;20553;-69
2023/01/09 03:40:10;;;;;;;25.52;5.22;;;9.20;99.90;;;;;;5052595;28;20025;-69
2023/01/09 03:42:36;;;;;;;18.63;4.55;;;9.10;99.90;;;;;;5052466;28;20056;-69
2023/01/09 03:45:02;;;;;;;16.48;4.53;;;9.10;99.90;;;;;;5051929;28;20186;-69
2023/01/09 03:47:28;;;;;;;22.42;4.85;;;9.20;99.90;;;;;;5052684;28;20025;-69
2023/01/09 03:49:53;;;;;;;17.67;3.80;;;9.20;99.90;;;;;;5052384;28;20509;-69
2023/01/09 03:52:19;;;;;;;19.45;3.67;;;9.10;99.90;;;;;;5052602;28;20060;-69
2023/01/09 03:54:45;;;;;;;20.50;4.07;;;9.10;99.90;;;;;;5051944;28;20025;-69
2023/01/09 03:57:10;;;;;;;19.02;4.18;;;9.10;99.90;;;;;;5052113;28;20496;-69
2023/01/09 03:59:36;;;;;;;19.48;4.10;;;9.00;99.90;;;;;;5052192;28;20384;-69
2023/01/09 04:02:02;;;;;;;15.77;3.88;;;8.90;99.90;;;;;;5052165;28;20090;-69
2023/01/09 04:04:28;;;;;;;23.02;4.55;;;8.90;99.90;;;;;;5052030;28;20021;-68
2023/01/09 04:06:53;;;;;;;24.55;4.95;;;8.90;99.90;;;;;;5051963;28;20021;-68
2023/01/09 04:09:19;;;;;;;20.60;4.53;;;8.90;99.90;;;;;;5052048;28;20095;-68
2023/01/09 04:11:45;;;;;;;20.30;4.30;;;8.90;99.90;;;;;;5051942;28;20405;-68
2023/01/09 04:14:10;;;;;;;20.25;4.63;;;8.80;99.90;;;;;;5052166;28;20024;-69
2023/01/09 04:16:36;;;;;;;24.85;4.80;;;8.90;99.90;;;;;;5052294;28;20037;-69
2023/01/09 04:19:02;;;;;;;18.08;4.25;;;9.00;99.90;;;;;;5052021;28;20029;-69
2023/01/09 04:21:27;;;;;;;24.85;4.40;;;9.00;99.90;;;;;;5051601;28;20029;-69
2023/01/09 04:23:53;;;;;;;21.67;4.60;;;9.10;99.90;;;;;;5051824;28;20393;-69
2023/01/09 04:26:18;;;;;;;23.60;4.40;;;9.20;99.90;;;;;;5051950;28;20037;-69
2023/01/09 04:28:44;;;;;;;14.27;3.40;;;9.30;99.90;;;;;;5052059;28;20182;-68
2023/01/09 04:31:10;;;;;;;18.15;4.10;;;9.50;99.90;;;;;;5051733;28;20036;-69
2023/01/09 04:33:36;;;;;;;20.90;4.47;;;9.60;99.90;;;;;;5051867;28;20022;-69
2023/01/09 04:36:01;;;;;;;24.45;5.00;;;9.40;99.90;;;;;;5051358;28;20068;-69
2023/01/09 04:38:27;;;;;;;17.92;4.13;;;9.40;99.90;;;;;;5051930;28;20489;-69
2023/01/09 04:40:53;;;;;;;20.58;3.80;;;9.50;99.90;;;;;;5051829;28;20071;-69
2023/01/09 04:43:18;;;;;;;23.13;4.43;;;9.50;99.90;;;;;;5051674;28;20029;-69
2023/01/09 04:45:44;;;;;;;23.75;4.93;;;9.50;99.90;;;;;;5052137;28;20127;-69
2023/01/09 04:48:10;;;;;;;22.10;4.68;;;9.50;99.90;;;;;;5051578;28;20103;-69
2023/01/09 04:50:36;;;;;;;23.83;4.70;;;9.50;99.90;;;;;;5051161;28;20501;-69
2023/01/09 04:53:01;;;;;;;18.48;3.78;;;9.50;99.90;;;;;;5051735;28;20420;-68
2023/01/09 04:55:27;;;;;;;20.17;4.88;;;9.70;99.90;;;;;;5051598;28;20029;-69
2023/01/09 04:57:53;;;;;;;17.70;4.25;;;9.60;99.90;;;;;;5053042;28;20021;-69
2023/01/09 05:00:19;;;;;;;19.88;4.20;;;9.60;99.90;;;;;;5055474;28;20024;-69
2023/01/09 05:02:44;;;;;;;16.98;4.30;;;9.70;99.90;;;;;;5055470;28;20025;-69
2023/01/09 05:05:10;;;;;;;18.02;4.55;;;9.60;99.90;;;;;;5054872;28;20049;-69
2023/01/09 05:07:36;;;;;;;15.73;4.07;;;9.60;99.90;;;;;;5055673;28;20037;-69
2023/01/09 05:10:03;;;;;;;18.42;3.80;;;9.60;99.90;;;;;;5055174;28;20370;-69
2023/01/09 05:12:29;;;;;;;22.30;4.10;;;9.60;99.90;;;;;;5055205;28;20470;-69
2023/01/09 05:14:56;;;;;;;16.88;3.67;;;9.70;99.90;;;;;;5055190;28;20028;-69
2023/01/09 05:17:22;;;;;;;16.33;3.50;;;9.80;99.90;;;;;;5055430;28;20154;-68
2023/01/09 05:19:48;;;;;;;18.60;3.95;;;9.80;99.90;;;;;;5054660;28;20025;-69
2023/01/09 05:22:13;;;;;;;18.50;4.13;;;9.90;99.90;;;;;;5055154;28;20021;-69
2023/01/09 05:24:39;;;;;;;17.83;4.10;;;9.90;99.90;;;;;;5055389;28;20032;-69
2023/01/09 05:27:05;;;;;;;21.58;4.22;;;9.90;99.90;;;;;;5054889;28;20504;-69
2023/01/09 05:29:31;;;;;;;16.92;4.10;;;9.80;99.90;;;;;;5054892;28;20067;-69
2023/01/09 05:31:57;;;;;;;18.30;4.60;;;9.70;99.90;;;;;;5054542;28;20028;-69
2023/01/09 05:34:22;;;;;;;19.40;4.45;;;9.60;99.90;;;;;;5054328;28;20096;-69
2023/01/09 05:36:48;;;;;;;18.40;4.15;;;9.50;99.90;;;;;;5055078;28;20024;-69
2023/01/09 05:39:14;;;;;;;23.63;4.90;;;9.70;99.90;;;;;;5054741;28;20032;-69
2023/01/09 05:41:40;;;;;;;22.27;4.40;;;9.70;99.90;;;;;;5054780;28;20543;-69
2023/01/09 05:44:05;;;;;;;26.25;5.00;;;9.70;99.90;;;;;;5054702;28;20039;-69
2023/01/09 05:46:32;;;;;;;20.70;5.18;;;9.90;99.90;;;;;;5054559;28;20481;-69
2023/01/09 05:48:57;;;;;;;21.63;4.47;;;10.00;99.90;;;;;;5054171;28;20032;-69
2023/01/09 05:51:23;;;;;;;17.05;4.07;;;10.00;99.90;;;;;;5054421;28;20520;-69
2023/01/09 05:53:49;;;;;;;16.63;4.10;;;9.80;99.90;;;;;;5054290;28;20021;-69
2023/01/09 05:56:15;;;;;;;19.13;4.45;;;9.50;99.90;;;;;;5054423;28;20083;-69
2023/01/09 05:58:41;;;;;;;18.17;4.47;;;9.30;99.90;;;;;;5054328;28;20021;-69
2023/01/09 06:01:07;;;;;;;21.67;4.20;;;9.20;99.90;;;;;;5054467;28;20025;-69
2023/01/09 06:03:33;;;;;;;23.75;4.78;;;9.20;99.90;;;;;;5053753;28;20029;-67
2023/01/09 06:05:59;;;;;;;23.85;4.57;;;9.20;99.90;;;;;;5054521;28;20071;-67
2023/01/09 06:08:24;;;;;;;23.33;4.65;;;9.10;99.90;;;;;;5053761;28;20421;-66
2023/01/09 06:10:50;;;;;;;18.52;4.28;;;8.90;99.90;;;;;;5054077;28;20385;-67
2023/01/09 06:13:16;;;;;;;17.95;4.00;;;8.80;99.90;;;;;;5054180;28;20087;-67
2023/01/09 06:15:41;;;;;;;18.75;4.32;;;8.70;99.90;;;;;;5054053;28;20036;-68
2023/01/09 06:18:07;;;;;;;17.98;4.00;;;8.60;99.90;;;;;;5052231;28;20057;-67
2023/01/09 06:20:33;;;;;;;22.20;4.40;;;8.60;99.90;;;;;;5053962;28;20059;-67
2023/01/09 06:22:59;;;;;;;19.38;4.47;;;8.60;99.90;;;;;;5053565;28;20032;-68
2023/01/09 06:25:24;;;;;;;20.85;4.85;;;8.70;99.90;;;;;;5053921;28;20044;-67
2023/01/09 06:27:51;;;;;;;19.35;4.57;;;8.60;99.90;;;;;;5053573;28;20044;-68
2023/01/09 06:30:20;;;;;;;18.80;4.30;;;8.60;99.90;;;;;;5053728;28;20075;-68
2023/01/09 06:32:50;;;;;;;18.75;4.13;;;8.60;99.90;;;;;;5053298;28;20037;-68
2023/01/09 06:35:19;;;;;;;23.30;4.78;;;8.60;99.90;;;;;;5053693;28;20044;-68
2023/01/09 06:37:46;;;;;;;18.13;4.20;;;8.50;99.90;;;;;;5053631;28;20033;-68
2023/01/09 06:40:13;;;;;;;21.92;5.18;;;8.30;99.90;;;;;;5053593;28;20113;-68
2023/01/09 06:42:43;;;;;;;30.48;5.90;;;8.20;99.90;;;;;;5053423;28;20104;-67
2023/01/09 06:45:10;;;;;;;22.20;5.22;;;8.20;99.90;;;;;;5053309;28;20037;-67
2023/01/09 06:47:35;;;;;;;23.00;5.10;;;8.20;99.90;;;;;;5053444;28;20017;-67
2023/01/09 06:50:01;;;;;;;27.42;4.78;;;8.20;99.90;;;;;;5053322;28;20043;-67
2023/01/09 06:52:26;;;;;;;25.38;5.07;;;8.10;99.90;;;;;;5053400;28;20029;-67
2023/01/09 06:54:52;;;;;;;23.60;4.93;;;8.00;99.90;;;;;;5053445;28;20025;-67
2023/01/09 06:57:18;;;;;;;22.15;4.55;;;8.00;99.90;;;;;;5053220;28;20112;-67
2023/01/09 06:59:43;;;;;;;22.05;5.25;;;8.00;99.90;;;;;;5053262;28;20576;-67
2023/01/09 07:02:18;;;;;;;31.95;7.57;;;8.00;99.90;;;;;;5052992;28;20116;-67
2023/01/09 07:04:44;;;;;;;30.60;6.65;;;8.10;99.90;;;;;;5052836;28;20033;-65
2023/01/09 07:07:10;;;;;;;65.30;33.10;;;8.00;99.90;;;;;;5052930;28;20477;-66
2023/01/09 07:09:35;;;;;;;29.50;9.85;;;7.90;99.90;;;;;;5053011;28;20052;-66
2023/01/09 07:12:01;;;;;;;31.63;9.05;;;7.70;99.90;;;;;;5052780;28;20044;-66
2023/01/09 07:14:27;;;;;;;23.70;4.97;;;7.80;99.90;;;;;;5052537;28;20060;-66
2023/01/09 07:16:52;;;;;;;27.35;5.50;;;8.00;99.90;;;;;;5052586;28;20032;-66
2023/01/09 07:19:18;;;;;;;28.17;5.63;;;7.90;99.90;;;;;;5052520;28;20508;-67
2023/01/09 07:21:44;;;;;;;29.20;5.88;;;7.80;99.90;;;;;;5051946;28;20028;-66
2023/01/09 07:24:09;;;;;;;27.08;5.13;;;7.90;99.90;;;;;;5052552;28;20025;-65
2023/01/09 07:26:35;;;;;;;31.63;6.75;;;8.10;99.90;;;;;;5052632;28;20028;-68
2023/01/09 07:29:01;;;;;;;26.73;5.70;;;8.20;99.90;;;;;;5051684;28;20048;-68
2023/01/09 07:31:26;;;;;;;26.83;5.20;;;8.20;99.90;;;;;;5051244;28;20041;-68
2023/01/09 07:33:52;;;;;;;26.63;6.03;;;8.20;99.90;;;;;;5050950;28;20481;-67
2023/01/09 07:36:18;;;;;;;29.20;5.78;;;8.50;99.90;;;;;;5052303;28;20029;-68
2023/01/09 07:38:44;;;;;;;28.95;5.80;;;8.50;99.90;;;;;;5052386;28;20161;-67
2023/01/09 07:41:09;;;;;;;30.98;5.90;;;8.60;99.90;;;;;;5052397;28;20648;-68
2023/01/09 07:43:37;;;;;;;32.60;6.25;;;8.70;99.90;;;;;;5051410;28;20028;-67
2023/01/09 07:46:03;;;;;;;23.67;5.35;;;8.80;99.90;;;;;;5052101;28;20036;-66
2023/01/09 07:48:28;;;;;;;22.02;5.13;;;8.80;99.90;;;;;;5052155;28;20029;-66
2023/01/09 07:50:54;;;;;;;15.10;3.60;;;8.40;99.90;;;;;;5052135;28;20428;-66
2023/01/09 07:53:20;;;;;;;12.15;3.30;;;8.50;99.90;;;;;;5052697;28;20032;-67
2023/01/09 07:55:45;;;;;;;16.45;3.58;;;8.40;99.90;;;;;;5052067;28;20022;-66
2023/01/09 07:58:11;;;;;;;14.95;2.97;;;8.30;99.90;;;;;;5052323;28;20040;-67
2023/01/09 08:00:37;;;;;;;13.80;3.55;;;8.20;99.90;;;;;;5051809;28;20021;-67
2023/01/09 08:03:02;;;;;;;13.32;3.13;;;8.20;99.90;;;;;;5051892;28;20036;-65
2023/01/09 08:05:28;;;;;;;17.50;3.53;;;8.30;99.90;;;;;;5052122;28;20049;-66
2023/01/09 08:07:54;;;;;;;19.67;4.05;;;8.40;99.90;;;;;;5051588;28;20040;-67
2023/01/09 08:10:19;;;;;;;20.23;4.18;;;8.40;99.90;;;;;;5051369;28;20029;-66
2023/01/09 08:12:47;;;;;;;20.23;4.53;;;8.50;99.90;;;;;;5051812;28;20064;-67
2023/01/09 08:15:12;;;;;;;21.77;4.55;;;8.60;99.90;;;;;;5051446;28;20374;-67
2023/01/09 08:17:43;;;;;;;19.92;4.18;;;8.60;99.90;;;;;;5052259;28;20078;-67
2023/01/09 08:20:10;;;;;;;22.35;5.07;;;8.60;99.90;;;;;;5051843;28;20508;-67
2023/01/09 08:22:37;;;;;;;20.98;4.13;;;8.60;99.90;;;;;;5051942;28;20029;-67
2023/01/09 08:25:03;;;;;;;21.98;4.78;;;8.50;99.90;;;;;;5051759;28;20028;-67
2023/01/09 08:27:29;;;;;;;26.58;4.85;;;8.50;99.90;;;;;;5051526;28;20095;-66
2023/01/09 08:29:54;;;;;;;21.95;4.13;;;8.50;99.90;;;;;;5051609;28;20017;-67
2023/01/09 08:32:20;;;;;;;22.52;4.57;;;8.60;99.90;;;;;;5054390;28;20049;-67
2023/01/09 08:34:46;;;;;;;21.35;4.40;;;8.60;99.90;;;;;;5055806;28;20031;-66
2023/01/09 08:37:11;;;;;;;23.10;4.85;;;8.70;99.90;;;;;;5055688;28;20033;-67
2023/01/09 08:39:37;;;;;;;27.85;5.40;;;8.90;99.90;;;;;;5055838;28;20029;-67
2023/01/09 08:47:32;;;;;;;20.63;5.22;;;9.30;99.90;;;;;;5056006;28;20028;-68
2023/01/09 08:49:59;;;;;;;26.98;5.32;;;9.40;99.90;;;;;;5055532;28;20033;-68
2023/01/09 08:52:25;;;;;;;23.10;5.55;;;9.40;99.90;;;;;;5055661;28;20515;-68
2023/01/09 08:54:51;;;;;;;24.27;5.00;;;10.00;99.90;;;;;;5055700;28;20032;-68
2023/01/09 08:57:17;;;;;;;22.40;4.32;;;12.70;99.90;;;;;;5055109;28;20025;-67
2023/01/09 08:59:42;;;;;;;28.00;5.97;;;12.80;99.90;;;;;;5055249;28;20033;-68
2023/01/09 09:02:09;;;;;;;23.95;4.85;;;11.60;99.90;;;;;;5055384;28;20104;-68
2023/01/09 09:04:34;;;;;;;22.00;4.80;;;10.80;99.90;;;;;;5055394;28;20029;-69
2023/01/09 09:07:00;;;;;;;27.02;5.65;;;10.50;99.90;;;;;;5055683;28;20032;-68
2023/01/09 09:09:26;;;;;;;26.38;5.75;;;10.30;99.90;;;;;;5054065;28;20155;-68
2023/01/09 09:11:52;;;;;;;26.88;5.53;;;10.10;99.90;;;;;;5054508;28;20047;-67
2023/01/09 09:17:02;;;;;;;26.42;5.50;;;9.80;99.90;;;;;;5055532;28;20417;-67
2023/01/09 09:19:27;;;;;;;23.83;4.72;;;9.70;99.90;;;;;;5055170;28;20017;-67
2023/01/09 09:21:53;;;;;;;25.25;5.10;;;10.00;99.90;;;;;;5055403;28;20025;-67
2023/01/09 09:24:19;;;;;;;18.27;4.22;;;10.20;99.90;;;;;;5054957;28;20096;-67
2023/01/09 09:26:44;;;;;;;20.85;4.30;;;10.80;99.90;;;;;;5054501;28;20033;-68
2023/01/09 09:29:10;;;;;;;16.88;4.07;;;11.20;99.90;;;;;;5054687;28;20052;-66
2023/01/09 09:31:37;;;;;;;14.30;3.92;;;11.00;99.90;;;;;;5054996;28;20033;-69
2023/01/09 09:34:04;;;;;;;14.57;3.67;;;10.70;99.90;;;;;;5054835;28;20025;-67
2023/01/09 09:36:30;;;;;;;17.42;4.20;;;10.30;99.90;;;;;;5054602;28;20036;-67
2023/01/09 09:38:55;;;;;;;14.30;3.67;;;10.30;99.90;;;;;;5054855;28;20138;-67
2023/01/09 09:44:42;;;;;;;22.63;4.97;;;11.30;99.90;;;;;;5053998;28;20082;-68
2023/01/09 09:47:23;;;;;;;20.02;5.25;;;12.60;99.90;;;;;;5054308;28;20020;-68
2023/01/09 09:50:04;;;;;;;19.95;4.40;;;15.50;99.90;;;;;;5054102;28;20025;-68
2023/01/09 09:53:08;;;;;;;23.55;5.70;;;13.00;99.90;;;;;;5054480;28;20494;-67
2023/01/09 09:55:38;;;;;;;21.98;5.05;;;11.20;99.90;;;;;;5011829;28;20038;-67
2023/01/09 09:58:21;;;;;;;23.67;5.13;;;10.80;99.90;;;;;;5012843;28;20049;-67
2023/01/09 10:00:51;;;;;;;22.75;5.10;;;10.50;99.90;;;;;;5012366;28;20052;-68
2023/01/09 10:03:29;;;;;;;24.90;5.35;;;10.30;99.90;;;;;;5012818;28;20022;-67
2023/01/09 10:05:59;;;;;;;21.65;5.30;;;10.30;99.90;;;;;;5012106;28;20427;-67
2023/01/09 10:08:40;;;;;;;24.80;5.18;;;10.30;99.90;;;;;;5012268;28;20053;-67
2023/01/09 10:11:17;;;;;;;24.85;5.07;;;10.20;99.90;;;;;;5011781;28;20030;-67
2023/01/09 10:16:30;;;;;;;16.45;4.80;;;11.50;99.90;;;;;;5012424;28;20117;-67
2023/01/09 10:19:19;;;;;;;18.67;4.95;;;15.20;99.90;;;;;;5012087;28;20042;-67
2023/01/09 10:21:57;;;;;;;18.92;4.45;;;17.50;99.90;;;;;;5009310;28;20037;-67
2023/01/09 10:24:49;;;;;;;15.68;4.53;;;17.30;99.90;;;;;;5011447;28;20037;-67
2023/01/09 10:27:46;;;;;;;19.25;4.07;;;17.70;99.90;;;;;;4992097;28;20050;-68
2023/01/09 10:30:40;;;;;;;20.17;4.28;;;15.00;99.90;;;;;;4992312;28;20050;-67
2023/01/09 10:33:38;;;;;;;16.88;3.88;;;15.90;99.90;;;;;;5027538;28;20099;-67
2023/01/09 10:36:15;;;;;;;15.20;4.30;;;14.80;99.90;;;;;;5031450;28;20459;-67
2023/01/09 10:38:46;;;;;;;23.33;5.60;;;13.80;99.90;;;;;;5030877;28;20117;-67
2023/01/09 10:41:23;;;;;;;18.77;5.32;;;13.10;99.90;;;;;;5031308;28;20041;-67
2023/01/09 10:44:09;;;;;;;20.30;4.95;;;12.70;99.90;;;;;;5031698;28;20076;-67
2023/01/09 10:46:42;;;;;;;27.35;5.50;;;12.40;99.90;;;;;;5031222;28;20391;-67
2023/01/09 10:49:15;;;;;;;26.30;5.63;;;12.40;99.90;;;;;;5031162;28;20390;-67
2023/01/09 10:51:50;;;;;;;27.43;6.00;;;13.40;99.90;;;;;;5030845;28;20041;-67
2023/01/09 10:54:20;;;;;;;22.67;5.30;;;16.70;99.90;;;;;;5030860;28;20072;-68
2023/01/09 10:57:05;;;;;;;19.80;4.68;;;19.40;99.90;;;;;;5031211;28;20037;-68
2023/01/09 10:59:30;;;;;;;20.35;5.32;;;18.60;99.90;;;;;;5031542;28;20490;-68
2023/01/09 11:01:56;;;;;;;18.85;5.13;;;17.70;99.90;;;;;;5030890;28;20037;-67
2023/01/09 11:04:27;;;;;;;27.33;5.90;;;19.70;99.90;;;;;;5044496;28;20047;-68
2023/01/09 11:07:06;;;;;;;22.08;5.50;;;18.70;99.90;;;;;;5052203;28;20029;-68
2023/01/09 11:09:58;;;;;;;22.08;5.45;;;18.00;99.90;;;;;;5052243;28;20025;-69
2023/01/09 11:12:26;;;;;;;23.88;5.15;;;15.40;99.90;;;;;;5052451;28;20021;-66
2023/01/09 11:14:52;;;;;;;20.67;5.05;;;12.30;99.90;;;;;;5052684;28;20478;-66
2023/01/09 11:17:20;;;;;;;16.73;4.38;;;11.60;99.90;;;;;;5052748;28;20027;-66
2023/01/09 11:20:04;;;;;;;22.38;5.20;;;13.90;99.90;;;;;;5053047;28;20027;-66
2023/01/09 11:22:43;;;;;;;20.15;4.72;;;17.10;99.90;;;;;;5051036;28;20436;-67
2023/01/09 11:25:12;;;;;;;15.43;4.45;;;18.60;99.90;;;;;;5052526;28;20432;-67
2023/01/09 11:27:38;;;;;;;17.13;5.07;;;17.70;99.90;;;;;;5052476;28;20509;-68
2023/01/09 11:30:04;;;;;;;15.10;3.97;;;17.80;99.90;;;;;;5053003;28;20079;-67
2023/01/09 11:32:31;;;;;;;15.88;3.75;;;17.80;99.90;;;;;;5052401;28;20033;-67
2023/01/09 11:34:57;;;;;;;15.43;3.58;;;17.30;99.90;;;;;;5052671;28;20025;-67
2023/01/09 11:37:30;;;;;;;15.25;4.07;;;17.10;99.90;;;;;;5052075;28;20044;-67
2023/01/09 11:40:15;;;;;;;16.48;3.65;;;17.70;99.90;;;;;;5052532;28;20032;-67
2023/01/09 11:42:59;;;;;;;15.65;3.80;;;17.00;99.90;;;;;;5052401;28;20151;-67
2023/01/09 11:45:34;;;;;;;15.07;4.00;;;18.60;99.90;;;;;;5052382;28;20029;-67
2023/01/09 11:48:03;;;;;;;15.70;5.53;;;18.50;99.90;;;;;;5052310;28;20032;-67
2023/01/09 11:50:30;;;;;;;17.20;5.15;;;17.30;99.90;;;;;;5052154;28;20037;-67
2023/01/09 11:53:18;;;;;;;15.43;4.20;;;16.10;99.90;;;;;;5051954;28;20024;-66
2023/01/09 11:55:46;;;;;;;19.73;5.30;;;15.00;99.90;;;;;;5052123;28;20094;-66
2023/01/09 11:58:20;;;;;;;24.90;9.32;;;13.50;99.90;;;;;;5052071;28;20496;-67
2023/01/09 12:01:11;;;;;;;17.48;6.28;;;15.40;99.90;;;;;;5052180;28;20024;-66
2023/01/09 12:03:56;;;;;;;24.98;9.40;;;15.70;99.90;;;;;;5052189;28;20025;-67
2023/01/09 12:06:28;;;;;;;20.05;7.32;;;16.20;99.90;;;;;;5051403;28;20025;-67
2023/01/09 12:09:06;;;;;;;27.25;11.45;;;16.70;99.90;;;;;;5052224;28;20021;-67
2023/01/09 12:11:47;;;;;;;37.92;27.40;;;16.70;99.90;;;;;;5051906;28;20041;-67
2023/01/09 12:14:32;;;;;;;21.17;10.18;;;15.90;99.90;;;;;;5051722;28;20049;-67
2023/01/09 12:17:15;;;;;;;20.50;10.65;;;14.70;99.90;;;;;;5051939;28;20017;-67
2023/01/09 12:19:44;;;;;;;13.80;5.32;;;13.90;99.90;;;;;;5051681;28;20105;-67
2023/01/09 12:22:24;;;;;;;21.17;10.27;;;15.10;99.90;;;;;;5051604;28;20021;-67
2023/01/09 12:25:05;;;;;;;18.75;6.32;;;15.40;99.90;;;;;;5051735;28;20054;-67
2023/01/09 12:27:54;;;;;;;14.32;4.50;;;15.10;99.90;;;;;;5051694;28;20120;-67
2023/01/09 12:30:31;;;;;;;14.38;3.42;;;14.80;99.90;;;;;;5010158;28;20482;-67
2023/01/09 12:33:24;;;;;;;15.00;4.38;;;14.40;99.90;;;;;;5009367;28;20429;-70
2023/01/09 12:36:04;;;;;;;16.65;4.00;;;14.90;99.90;;;;;;5009444;28;20402;-68
2023/01/09 12:38:40;;;;;;;16.90;3.97;;;14.20;99.90;;;;;;5009899;28;20457;-68
2023/01/09 12:41:11;;;;;;;17.00;4.70;;;14.60;99.90;;;;;;5009821;28;20032;-69
2023/01/09 12:44:13;;;;;;;18.35;4.43;;;14.50;99.90;;;;;;5010359;28;20045;-69
2023/01/09 12:46:54;;;;;;;20.05;4.35;;;14.10;99.90;;;;;;4992598;28;20410;-69
2023/01/09 12:49:27;;;;;;;17.75;4.78;;;13.90;99.90;;;;;;5009528;28;20521;-69
2023/01/09 12:52:02;;;;;;;21.02;4.95;;;13.60;99.90;;;;;;5009562;28;20085;-70
2023/01/09 12:54:37;;;;;;;18.65;5.05;;;13.30;99.90;;;;;;5009799;28;20026;-69
2023/01/09 12:57:17;;;;;;;20.63;5.07;;;13.10;99.90;;;;;;5009736;28;20033;-70
2023/01/09 12:59:52;;;;;;;25.77;5.70;;;13.00;99.90;;;;;;5009776;28;20438;-70
2023/01/09 13:02:33;;;;;;;22.42;5.45;;;13.00;99.90;;;;;;5008946;28;20061;-69
2023/01/09 13:05:06;;;;;;;21.63;5.40;;;12.70;99.90;;;;;;5008972;28;20057;-69
2023/01/09 13:07:39;;;;;;;18.30;4.40;;;12.70;99.90;;;;;;5031745;28;20040;-70
2023/01/09 13:10:29;;;;;;;17.52;4.43;;;12.20;99.90;;;;;;5051919;28;20059;-69
2023/01/09 13:12:57;;;;;;;20.45;4.38;;;12.00;99.90;;;;;;5051362;28;20040;-69
2023/01/09 13:15:26;;;;;;;21.10;4.63;;;12.20;99.90;;;;;;5051676;28;20025;-69
2023/01/09 13:18:03;;;;;;;17.23;4.32;;;12.50;99.90;;;;;;5051195;28;20044;-69